sensor_id;sensor_type;location;lat;lon;timestamp;P1;durP1;ratioP1;P2;durP2;ratioP2
18304;SDS011;9278;52.156;21.048;2023-05-20T00:02:11;16.95;;;9.38;;
18304;SDS011;9278;52.156;21.048;2023-05-20T00:04:40;23.58;;;10.45;;
18304;SDS011;9278;52.156;21.048;2023-05-20T00:07:11;19.10;;;10.25;;
18304;SDS011;9278;52.156;21.048;2023-05-20T00:09:53;17.23;;;9.27;;
18304;SDS011;9278;52.156;21.048;2023-05-20T00:12:30;17.00;;;7.97;;
18304;SDS011;9278;52.156;21.048;2023-05-20T00:15:02;20.65;;;8.95;;
18304;SDS011;9278;52.156;21.048;2023-05-20T00:17:34;18.60;;;8.48;;
18304;SDS011;9278;52.156;21.048;2023-05-20T00:20:06;17.45;;;7.68;;
18304;SDS011;9278;52.156;21.048;2023-05-20T00:22:36;18.85;;;8.88;;
18304;SDS011;9278;52.156;21.048;2023-05-20T00:25:07;16.90;;;8.27;;
18304;SDS011;9278;52.156;21.048;2023-05-20T00:27:36;26.13;;;9.25;;
18304;SDS011;9278;52.156;21.048;2023-05-20T00:30:07;15.27;;;8.82;;
18304;SDS011;9278;52.156;21.048;2023-05-20T00:32:38;17.63;;;9.10;;
18304;SDS011;9278;52.156;21.048;2023-05-20T00:35:09;19.65;;;8.98;;
18304;SDS011;9278;52.156;21.048;2023-05-20T00:37:38;15.85;;;8.88;;
18304;SDS011;9278;52.156;21.048;2023-05-20T00:40:07;18.27;;;9.20;;
18304;SDS011;9278;52.156;21.048;2023-05-20T00:42:41;21.92;;;8.98;;
18304;SDS011;9278;52.156;21.048;2023-05-20T00:45:14;19.20;;;9.18;;
18304;SDS011;9278;52.156;21.048;2023-05-20T00:47:44;16.35;;;8.38;;
18304;SDS011;9278;52.156;21.048;2023-05-20T00:50:15;17.75;;;8.73;;
18304;SDS011;9278;52.156;21.048;2023-05-20T00:52:44;18.65;;;8.73;;
18304;SDS011;9278;52.156;21.048;2023-05-20T00:55:14;21.27;;;9.48;;
18304;SDS011;9278;52.156;21.048;2023-05-20T00:57:46;18.20;;;9.50;;
18304;SDS011;9278;52.156;21.048;2023-05-20T01:00:17;20.63;;;9.73;;
18304;SDS011;9278;52.156;21.048;2023-05-20T01:02:51;19.73;;;9.52;;
18304;SDS011;9278;52.156;21.048;2023-05-20T01:05:20;17.63;;;9.18;;
18304;SDS011;9278;52.156;21.048;2023-05-20T01:07:50;13.38;;;8.60;;
18304;SDS011;9278;52.156;21.048;2023-05-20T01:10:21;19.92;;;9.35;;
18304;SDS011;9278;52.156;21.048;2023-05-20T01:12:52;16.33;;;8.32;;
18304;SDS011;9278;52.156;21.048;2023-05-20T01:15:24;16.92;;;8.60;;
18304;SDS011;9278;52.156;21.048;2023-05-20T01:17:56;22.83;;;8.98;;
18304;SDS011;9278;52.156;21.048;2023-05-20T01:20:28;18.63;;;8.38;;
18304;SDS011;9278;52.156;21.048;2023-05-20T01:23:00;20.98;;;8.68;;
18304;SDS011;9278;52.156;21.048;2023-05-20T01:25:29;22.55;;;8.90;;
18304;SDS011;9278;52.156;21.048;2023-05-20T01:27:59;16.88;;;7.82;;
18304;SDS011;9278;52.156;21.048;2023-05-20T01:30:28;17.70;;;7.85;;
18304;SDS011;9278;52.156;21.048;2023-05-20T01:32:58;15.20;;;7.70;;
18304;SDS011;9278;52.156;21.048;2023-05-20T01:35:32;15.85;;;7.80;;
18304;SDS011;9278;52.156;21.048;2023-05-20T01:38:04;20.50;;;8.73;;
18304;SDS011;9278;52.156;21.048;2023-05-20T01:40:34;24.15;;;8.80;;
18304;SDS011;9278;52.156;21.048;2023-05-20T01:43:05;12.93;;;7.70;;
18304;SDS011;9278;52.156;21.048;2023-05-20T01:45:35;16.05;;;8.18;;
18304;SDS011;9278;52.156;21.048;2023-05-20T01:48:07;17.27;;;7.97;;
18304;SDS011;9278;52.156;21.048;2023-05-20T01:50:39;19.08;;;8.25;;
18304;SDS011;9278;52.156;21.048;2023-05-20T01:53:11;14.60;;;7.57;;
18304;SDS011;9278;52.156;21.048;2023-05-20T01:55:41;15.85;;;8.07;;
18304;SDS011;9278;52.156;21.048;2023-05-20T01:58:11;18.83;;;7.68;;
18304;SDS011;9278;52.156;21.048;2023-05-20T02:00:47;17.58;;;7.72;;
18304;SDS011;9278;52.156;21.048;2023-05-20T02:03:31;14.80;;;7.43;;
18304;SDS011;9278;52.156;21.048;2023-05-20T02:06:01;17.80;;;7.43;;
18304;SDS011;9278;52.156;21.048;2023-05-20T02:08:35;16.90;;;7.57;;
18304;SDS011;9278;52.156;21.048;2023-05-20T02:11:07;15.82;;;7.70;;
18304;SDS011;9278;52.156;21.048;2023-05-20T02:13:39;14.98;;;7.38;;
18304;SDS011;9278;52.156;21.048;2023-05-20T02:16:08;14.25;;;7.00;;
18304;SDS011;9278;52.156;21.048;2023-05-20T02:18:39;15.15;;;7.65;;
18304;SDS011;9278;52.156;21.048;2023-05-20T02:21:15;12.15;;;6.85;;
18304;SDS011;9278;52.156;21.048;2023-05-20T02:23:50;13.60;;;6.95;;
18304;SDS011;9278;52.156;21.048;2023-05-20T02:26:20;11.93;;;6.75;;
18304;SDS011;9278;52.156;21.048;2023-05-20T02:28:51;11.50;;;6.40;;
18304;SDS011;9278;52.156;21.048;2023-05-20T02:31:20;12.65;;;6.13;;
18304;SDS011;9278;52.156;21.048;2023-05-20T02:33:49;15.27;;;6.80;;
18304;SDS011;9278;52.156;21.048;2023-05-20T02:36:18;10.02;;;6.05;;
18304;SDS011;9278;52.156;21.048;2023-05-20T02:39:02;13.10;;;6.40;;
18304;SDS011;9278;52.156;21.048;2023-05-20T02:41:33;11.40;;;5.95;;
18304;SDS011;9278;52.156;21.048;2023-05-20T02:44:03;11.93;;;6.00;;
18304;SDS011;9278;52.156;21.048;2023-05-20T02:46:34;15.30;;;6.57;;
18304;SDS011;9278;52.156;21.048;2023-05-20T02:49:05;16.80;;;6.38;;
18304;SDS011;9278;52.156;21.048;2023-05-20T02:51:34;11.38;;;5.90;;
18304;SDS011;9278;52.156;21.048;2023-05-20T02:54:06;14.30;;;5.97;;
18304;SDS011;9278;52.156;21.048;2023-05-20T02:56:38;12.35;;;6.28;;
18304;SDS011;9278;52.156;21.048;2023-05-20T02:59:08;10.77;;;5.55;;
18304;SDS011;9278;52.156;21.048;2023-05-20T03:01:40;10.88;;;6.10;;
18304;SDS011;9278;52.156;21.048;2023-05-20T03:04:14;12.45;;;6.07;;
18304;SDS011;9278;52.156;21.048;2023-05-20T03:06:45;16.88;;;5.93;;
18304;SDS011;9278;52.156;21.048;2023-05-20T03:09:29;15.02;;;6.28;;
18304;SDS011;9278;52.156;21.048;2023-05-20T03:11:58;11.85;;;6.13;;
18304;SDS011;9278;52.156;21.048;2023-05-20T03:14:28;16.55;;;5.93;;
18304;SDS011;9278;52.156;21.048;2023-05-20T03:16:57;12.93;;;6.05;;
18304;SDS011;9278;52.156;21.048;2023-05-20T03:19:36;11.23;;;5.78;;
18304;SDS011;9278;52.156;21.048;2023-05-20T03:22:05;12.80;;;6.10;;
18304;SDS011;9278;52.156;21.048;2023-05-20T03:24:37;21.15;;;5.93;;
18304;SDS011;9278;52.156;21.048;2023-05-20T03:27:06;11.75;;;5.90;;
18304;SDS011;9278;52.156;21.048;2023-05-20T03:29:37;8.68;;;5.63;;
18304;SDS011;9278;52.156;21.048;2023-05-20T03:32:14;9.13;;;5.75;;
18304;SDS011;9278;52.156;21.048;2023-05-20T03:34:44;11.32;;;5.97;;
18304;SDS011;9278;52.156;21.048;2023-05-20T03:37:20;15.05;;;5.82;;
18304;SDS011;9278;52.156;21.048;2023-05-20T03:39:51;19.05;;;5.80;;
18304;SDS011;9278;52.156;21.048;2023-05-20T03:42:28;12.43;;;5.55;;
18304;SDS011;9278;52.156;21.048;2023-05-20T03:44:57;11.38;;;5.50;;
18304;SDS011;9278;52.156;21.048;2023-05-20T03:47:31;9.25;;;5.35;;
18304;SDS011;9278;52.156;21.048;2023-05-20T03:50:05;9.98;;;5.90;;
18304;SDS011;9278;52.156;21.048;2023-05-20T03:52:34;12.35;;;5.65;;
18304;SDS011;9278;52.156;21.048;2023-05-20T03:55:15;11.63;;;5.28;;
18304;SDS011;9278;52.156;21.048;2023-05-20T03:57:50;9.60;;;5.80;;
18304;SDS011;9278;52.156;21.048;2023-05-20T04:00:31;11.93;;;5.80;;
18304;SDS011;9278;52.156;21.048;2023-05-20T04:03:03;15.13;;;5.65;;
18304;SDS011;9278;52.156;21.048;2023-05-20T04:05:41;11.57;;;5.60;;
18304;SDS011;9278;52.156;21.048;2023-05-20T04:08:18;10.32;;;5.50;;
18304;SDS011;9278;52.156;21.048;2023-05-20T04:10:50;16.75;;;5.53;;
18304;SDS011;9278;52.156;21.048;2023-05-20T04:13:20;10.07;;;5.45;;
18304;SDS011;9278;52.156;21.048;2023-05-20T04:15:51;14.98;;;5.60;;
18304;SDS011;9278;52.156;21.048;2023-05-20T04:18:20;12.20;;;5.88;;
18304;SDS011;9278;52.156;21.048;2023-05-20T04:20:52;8.80;;;5.05;;
18304;SDS011;9278;52.156;21.048;2023-05-20T04:23:22;13.18;;;5.90;;
18304;SDS011;9278;52.156;21.048;2023-05-20T04:25:54;16.33;;;6.43;;
18304;SDS011;9278;52.156;21.048;2023-05-20T04:28:30;12.52;;;5.88;;
18304;SDS011;9278;52.156;21.048;2023-05-20T04:31:07;11.60;;;5.28;;
18304;SDS011;9278;52.156;21.048;2023-05-20T04:33:37;11.85;;;5.50;;
18304;SDS011;9278;52.156;21.048;2023-05-20T04:36:09;9.15;;;5.30;;
18304;SDS011;9278;52.156;21.048;2023-05-20T04:38:44;10.05;;;5.70;;
18304;SDS011;9278;52.156;21.048;2023-05-20T04:41:24;10.90;;;5.00;;
18304;SDS011;9278;52.156;21.048;2023-05-20T04:43:57;8.98;;;5.32;;
18304;SDS011;9278;52.156;21.048;2023-05-20T04:46:28;9.68;;;5.20;;
18304;SDS011;9278;52.156;21.048;2023-05-20T04:48:59;10.73;;;5.03;;
18304;SDS011;9278;52.156;21.048;2023-05-20T04:51:33;14.77;;;5.22;;
18304;SDS011;9278;52.156;21.048;2023-05-20T04:54:04;12.60;;;5.03;;
18304;SDS011;9278;52.156;21.048;2023-05-20T04:56:46;7.35;;;4.75;;
18304;SDS011;9278;52.156;21.048;2023-05-20T04:59:16;8.65;;;4.53;;
18304;SDS011;9278;52.156;21.048;2023-05-20T05:01:45;8.63;;;4.07;;
18304;SDS011;9278;52.156;21.048;2023-05-20T05:04:16;10.80;;;4.60;;
18304;SDS011;9278;52.156;21.048;2023-05-20T05:06:58;10.13;;;4.63;;
18304;SDS011;9278;52.156;21.048;2023-05-20T05:09:54;9.07;;;4.20;;
18304;SDS011;9278;52.156;21.048;2023-05-20T05:18:31;7.95;;;4.07;;
18304;SDS011;9278;52.156;21.048;2023-05-20T05:21:00;10.63;;;4.28;;
18304;SDS011;9278;52.156;21.048;2023-05-20T05:23:33;8.05;;;3.80;;
18304;SDS011;9278;52.156;21.048;2023-05-20T05:26:02;6.57;;;4.07;;
18304;SDS011;9278;52.156;21.048;2023-05-20T05:28:46;5.78;;;3.90;;
18304;SDS011;9278;52.156;21.048;2023-05-20T05:31:19;8.43;;;4.03;;
18304;SDS011;9278;52.156;21.048;2023-05-20T05:33:48;8.98;;;3.80;;
18304;SDS011;9278;52.156;21.048;2023-05-20T05:36:18;12.75;;;4.03;;
18304;SDS011;9278;52.156;21.048;2023-05-20T05:38:48;10.25;;;3.95;;
18304;SDS011;9278;52.156;21.048;2023-05-20T05:41:18;7.50;;;3.90;;
18304;SDS011;9278;52.156;21.048;2023-05-20T05:43:51;8.13;;;3.65;;
18304;SDS011;9278;52.156;21.048;2023-05-20T05:49:08;9.68;;;4.00;;
18304;SDS011;9278;52.156;21.048;2023-05-20T05:51:58;11.27;;;3.53;;
18304;SDS011;9278;52.156;21.048;2023-05-20T05:54:32;8.70;;;3.95;;
18304;SDS011;9278;52.156;21.048;2023-05-20T05:57:03;8.90;;;3.83;;
18304;SDS011;9278;52.156;21.048;2023-05-20T05:59:36;12.25;;;4.47;;
18304;SDS011;9278;52.156;21.048;2023-05-20T06:05:03;9.32;;;3.92;;
18304;SDS011;9278;52.156;21.048;2023-05-20T06:07:47;10.18;;;4.05;;
18304;SDS011;9278;52.156;21.048;2023-05-20T06:10:18;6.63;;;3.58;;
18304;SDS011;9278;52.156;21.048;2023-05-20T06:12:57;8.88;;;3.97;;
18304;SDS011;9278;52.156;21.048;2023-05-20T06:15:30;7.55;;;3.50;;
18304;SDS011;9278;52.156;21.048;2023-05-20T06:18:03;8.27;;;4.18;;
18304;SDS011;9278;52.156;21.048;2023-05-20T06:20:33;6.60;;;3.70;;
18304;SDS011;9278;52.156;21.048;2023-05-20T06:23:07;6.85;;;3.70;;
18304;SDS011;9278;52.156;21.048;2023-05-20T06:25:56;5.13;;;3.50;;
18304;SDS011;9278;52.156;21.048;2023-05-20T06:28:47;8.63;;;3.75;;
18304;SDS011;9278;52.156;21.048;2023-05-20T06:31:17;6.75;;;3.85;;
18304;SDS011;9278;52.156;21.048;2023-05-20T06:34:08;9.05;;;3.90;;
18304;SDS011;9278;52.156;21.048;2023-05-20T06:36:51;8.82;;;3.60;;
18304;SDS011;9278;52.156;21.048;2023-05-20T06:39:26;8.25;;;3.97;;
18304;SDS011;9278;52.156;21.048;2023-05-20T06:41:56;8.48;;;4.05;;
18304;SDS011;9278;52.156;21.048;2023-05-20T06:44:27;6.78;;;3.97;;
18304;SDS011;9278;52.156;21.048;2023-05-20T06:47:10;8.10;;;3.92;;
18304;SDS011;9278;52.156;21.048;2023-05-20T06:49:41;9.50;;;4.03;;
18304;SDS011;9278;52.156;21.048;2023-05-20T06:52:14;8.57;;;3.58;;
18304;SDS011;9278;52.156;21.048;2023-05-20T06:54:45;6.85;;;3.42;;
18304;SDS011;9278;52.156;21.048;2023-05-20T06:57:14;7.32;;;4.00;;
18304;SDS011;9278;52.156;21.048;2023-05-20T06:59:58;7.07;;;3.70;;
18304;SDS011;9278;52.156;21.048;2023-05-20T07:02:31;6.97;;;3.83;;
18304;SDS011;9278;52.156;21.048;2023-05-20T07:08:24;7.75;;;4.05;;
18304;SDS011;9278;52.156;21.048;2023-05-20T07:10:55;6.50;;;3.95;;
18304;SDS011;9278;52.156;21.048;2023-05-20T07:13:23;11.10;;;4.03;;
18304;SDS011;9278;52.156;21.048;2023-05-20T07:15:53;10.80;;;4.03;;
18304;SDS011;9278;52.156;21.048;2023-05-20T07:18:22;7.60;;;3.70;;
18304;SDS011;9278;52.156;21.048;2023-05-20T07:20:55;8.50;;;3.83;;
18304;SDS011;9278;52.156;21.048;2023-05-20T07:23:49;8.88;;;3.53;;
18304;SDS011;9278;52.156;21.048;2023-05-20T07:26:19;9.35;;;3.33;;
18304;SDS011;9278;52.156;21.048;2023-05-20T07:29:03;7.30;;;3.38;;
18304;SDS011;9278;52.156;21.048;2023-05-20T07:31:36;6.93;;;4.03;;
18304;SDS011;9278;52.156;21.048;2023-05-20T07:34:08;7.00;;;4.03;;
18304;SDS011;9278;52.156;21.048;2023-05-20T07:36:39;14.13;;;3.75;;
18304;SDS011;9278;52.156;21.048;2023-05-20T07:39:13;5.75;;;3.60;;
18304;SDS011;9278;52.156;21.048;2023-05-20T07:41:43;8.88;;;3.90;;
18304;SDS011;9278;52.156;21.048;2023-05-20T07:44:14;7.28;;;3.58;;
18304;SDS011;9278;52.156;21.048;2023-05-20T07:46:49;11.32;;;4.22;;
18304;SDS011;9278;52.156;21.048;2023-05-20T07:49:31;8.20;;;3.42;;
18304;SDS011;9278;52.156;21.048;2023-05-20T07:52:00;7.35;;;3.58;;
18304;SDS011;9278;52.156;21.048;2023-05-20T07:54:31;5.95;;;3.67;;
18304;SDS011;9278;52.156;21.048;2023-05-20T07:57:02;7.10;;;3.65;;
18304;SDS011;9278;52.156;21.048;2023-05-20T07:59:49;6.60;;;3.60;;
18304;SDS011;9278;52.156;21.048;2023-05-20T08:02:42;6.00;;;3.60;;
18304;SDS011;9278;52.156;21.048;2023-05-20T08:05:20;7.40;;;3.80;;
18304;SDS011;9278;52.156;21.048;2023-05-20T08:07:50;7.38;;;3.88;;
18304;SDS011;9278;52.156;21.048;2023-05-20T08:10:24;9.23;;;3.67;;
18304;SDS011;9278;52.156;21.048;2023-05-20T08:12:54;8.63;;;3.88;;
18304;SDS011;9278;52.156;21.048;2023-05-20T08:15:25;7.28;;;3.30;;
18304;SDS011;9278;52.156;21.048;2023-05-20T08:17:55;9.18;;;3.67;;
18304;SDS011;9278;52.156;21.048;2023-05-20T08:20:24;6.78;;;4.47;;
18304;SDS011;9278;52.156;21.048;2023-05-20T08:23:02;9.48;;;3.88;;
18304;SDS011;9278;52.156;21.048;2023-05-20T08:25:34;6.75;;;3.47;;
18304;SDS011;9278;52.156;21.048;2023-05-20T08:28:08;10.18;;;4.20;;
18304;SDS011;9278;52.156;21.048;2023-05-20T08:30:37;7.68;;;3.70;;
18304;SDS011;9278;52.156;21.048;2023-05-20T08:33:08;15.20;;;4.32;;
18304;SDS011;9278;52.156;21.048;2023-05-20T08:35:38;10.55;;;3.83;;
18304;SDS011;9278;52.156;21.048;2023-05-20T08:38:08;10.77;;;4.00;;
18304;SDS011;9278;52.156;21.048;2023-05-20T08:40:52;8.90;;;3.67;;
18304;SDS011;9278;52.156;21.048;2023-05-20T08:43:24;11.00;;;3.92;;
18304;SDS011;9278;52.156;21.048;2023-05-20T08:45:54;11.02;;;3.60;;
18304;SDS011;9278;52.156;21.048;2023-05-20T08:48:25;9.23;;;3.75;;
18304;SDS011;9278;52.156;21.048;2023-05-20T08:50:55;6.75;;;3.70;;
18304;SDS011;9278;52.156;21.048;2023-05-20T08:53:25;6.38;;;3.40;;
18304;SDS011;9278;52.156;21.048;2023-05-20T08:55:58;5.75;;;3.45;;
18304;SDS011;9278;52.156;21.048;2023-05-20T08:58:30;6.68;;;3.58;;
18304;SDS011;9278;52.156;21.048;2023-05-20T09:01:00;6.88;;;3.95;;
18304;SDS011;9278;52.156;21.048;2023-05-20T09:03:29;9.23;;;3.60;;
18304;SDS011;9278;52.156;21.048;2023-05-20T09:06:02;7.72;;;3.60;;
18304;SDS011;9278;52.156;21.048;2023-05-20T09:08:31;11.75;;;3.63;;
18304;SDS011;9278;52.156;21.048;2023-05-20T09:11:03;10.25;;;4.03;;
18304;SDS011;9278;52.156;21.048;2023-05-20T09:13:33;10.32;;;3.65;;
18304;SDS011;9278;52.156;21.048;2023-05-20T09:16:04;6.60;;;3.78;;
18304;SDS011;9278;52.156;21.048;2023-05-20T09:18:39;6.40;;;4.20;;
18304;SDS011;9278;52.156;21.048;2023-05-20T09:21:09;6.82;;;3.85;;
18304;SDS011;9278;52.156;21.048;2023-05-20T09:23:39;9.63;;;4.00;;
18304;SDS011;9278;52.156;21.048;2023-05-20T09:26:19;8.40;;;4.18;;
18304;SDS011;9278;52.156;21.048;2023-05-20T09:28:47;7.82;;;3.90;;
18304;SDS011;9278;52.156;21.048;2023-05-20T09:31:16;7.65;;;3.90;;
18304;SDS011;9278;52.156;21.048;2023-05-20T09:33:45;10.25;;;4.20;;
18304;SDS011;9278;52.156;21.048;2023-05-20T09:36:32;9.25;;;4.50;;
18304;SDS011;9278;52.156;21.048;2023-05-20T09:39:03;9.10;;;4.30;;
18304;SDS011;9278;52.156;21.048;2023-05-20T09:41:35;9.77;;;4.13;;
18304;SDS011;9278;52.156;21.048;2023-05-20T09:44:06;12.85;;;4.07;;
18304;SDS011;9278;52.156;21.048;2023-05-20T09:46:36;5.95;;;4.45;;
18304;SDS011;9278;52.156;21.048;2023-05-20T09:49:07;6.55;;;4.05;;
18304;SDS011;9278;52.156;21.048;2023-05-20T09:51:36;11.00;;;4.53;;
18304;SDS011;9278;52.156;21.048;2023-05-20T09:54:07;6.55;;;4.10;;
18304;SDS011;9278;52.156;21.048;2023-05-20T09:56:53;8.65;;;4.40;;
18304;SDS011;9278;52.156;21.048;2023-05-20T09:59:25;9.93;;;4.40;;
18304;SDS011;9278;52.156;21.048;2023-05-20T10:01:55;7.50;;;4.35;;
18304;SDS011;9278;52.156;21.048;2023-05-20T10:04:24;7.30;;;4.70;;
18304;SDS011;9278;52.156;21.048;2023-05-20T10:10:10;7.78;;;4.45;;
18304;SDS011;9278;52.156;21.048;2023-05-20T10:12:53;11.85;;;4.30;;
18304;SDS011;9278;52.156;21.048;2023-05-20T10:15:27;11.45;;;4.65;;
18304;SDS011;9278;52.156;21.048;2023-05-20T10:18:46;9.65;;;4.68;;
18304;SDS011;9278;52.156;21.048;2023-05-20T10:21:22;6.15;;;4.40;;
18304;SDS011;9278;52.156;21.048;2023-05-20T10:23:52;6.43;;;4.00;;
18304;SDS011;9278;52.156;21.048;2023-05-20T10:26:21;13.07;;;4.30;;
18304;SDS011;9278;52.156;21.048;2023-05-20T10:28:51;10.00;;;4.47;;
18304;SDS011;9278;52.156;21.048;2023-05-20T10:31:21;13.07;;;4.65;;
18304;SDS011;9278;52.156;21.048;2023-05-20T10:33:51;9.82;;;4.38;;
18304;SDS011;9278;52.156;21.048;2023-05-20T10:36:22;8.63;;;5.30;;
18304;SDS011;9278;52.156;21.048;2023-05-20T10:38:58;13.73;;;6.45;;
18304;SDS011;9278;52.156;21.048;2023-05-20T10:41:29;8.52;;;5.40;;
18304;SDS011;9278;52.156;21.048;2023-05-20T10:44:06;39.17;;;19.80;;
18304;SDS011;9278;52.156;21.048;2023-05-20T10:46:35;22.10;;;12.55;;
18304;SDS011;9278;52.156;21.048;2023-05-20T10:49:32;22.95;;;12.35;;
18304;SDS011;9278;52.156;21.048;2023-05-20T10:52:02;14.00;;;5.43;;
18304;SDS011;9278;52.156;21.048;2023-05-20T10:54:34;18.63;;;7.05;;
18304;SDS011;9278;52.156;21.048;2023-05-20T10:57:14;17.02;;;7.60;;
18304;SDS011;9278;52.156;21.048;2023-05-20T11:00:00;12.45;;;6.10;;
18304;SDS011;9278;52.156;21.048;2023-05-20T11:02:31;12.40;;;6.70;;
18304;SDS011;9278;52.156;21.048;2023-05-20T11:05:14;13.35;;;5.28;;
18304;SDS011;9278;52.156;21.048;2023-05-20T11:07:46;8.48;;;5.20;;
18304;SDS011;9278;52.156;21.048;2023-05-20T11:10:16;9.13;;;5.32;;
18304;SDS011;9278;52.156;21.048;2023-05-20T11:12:46;9.63;;;4.90;;
18304;SDS011;9278;52.156;21.048;2023-05-20T11:15:20;7.70;;;4.38;;
18304;SDS011;9278;52.156;21.048;2023-05-20T11:17:54;8.95;;;4.68;;
18304;SDS011;9278;52.156;21.048;2023-05-20T11:20:25;9.25;;;5.03;;
18304;SDS011;9278;52.156;21.048;2023-05-20T11:23:00;9.25;;;4.70;;
18304;SDS011;9278;52.156;21.048;2023-05-20T11:25:29;9.32;;;4.80;;
18304;SDS011;9278;52.156;21.048;2023-05-20T11:28:02;6.93;;;4.93;;
18304;SDS011;9278;52.156;21.048;2023-05-20T11:30:32;11.93;;;4.90;;
18304;SDS011;9278;52.156;21.048;2023-05-20T11:33:02;9.32;;;4.90;;
18304;SDS011;9278;52.156;21.048;2023-05-20T11:35:34;10.15;;;4.80;;
18304;SDS011;9278;52.156;21.048;2023-05-20T11:38:13;13.13;;;5.80;;
18304;SDS011;9278;52.156;21.048;2023-05-20T11:40:43;8.73;;;4.68;;
18304;SDS011;9278;52.156;21.048;2023-05-20T11:43:17;11.18;;;5.13;;
18304;SDS011;9278;52.156;21.048;2023-05-20T11:45:52;7.18;;;4.72;;
18304;SDS011;9278;52.156;21.048;2023-05-20T11:48:23;8.77;;;5.00;;
18304;SDS011;9278;52.156;21.048;2023-05-20T11:50:53;11.93;;;4.93;;
18304;SDS011;9278;52.156;21.048;2023-05-20T11:53:27;8.73;;;4.88;;
18304;SDS011;9278;52.156;21.048;2023-05-20T11:55:58;8.73;;;4.85;;
18304;SDS011;9278;52.156;21.048;2023-05-20T11:58:29;7.97;;;4.80;;
18304;SDS011;9278;52.156;21.048;2023-05-20T12:01:00;8.30;;;5.25;;
18304;SDS011;9278;52.156;21.048;2023-05-20T12:03:48;10.18;;;4.78;;
18304;SDS011;9278;52.156;21.048;2023-05-20T12:06:17;9.45;;;4.50;;
18304;SDS011;9278;52.156;21.048;2023-05-20T12:08:48;9.70;;;5.30;;
18304;SDS011;9278;52.156;21.048;2023-05-20T12:11:18;6.82;;;4.78;;
18304;SDS011;9278;52.156;21.048;2023-05-20T12:13:47;8.32;;;5.20;;
18304;SDS011;9278;52.156;21.048;2023-05-20T12:16:18;9.70;;;5.35;;
18304;SDS011;9278;52.156;21.048;2023-05-20T12:18:49;7.38;;;5.00;;
18304;SDS011;9278;52.156;21.048;2023-05-20T12:21:19;9.70;;;4.85;;
18304;SDS011;9278;52.156;21.048;2023-05-20T12:23:49;9.25;;;4.80;;
18304;SDS011;9278;52.156;21.048;2023-05-20T12:26:23;9.65;;;5.25;;
18304;SDS011;9278;52.156;21.048;2023-05-20T12:28:53;10.60;;;5.20;;
18304;SDS011;9278;52.156;21.048;2023-05-20T12:31:25;10.05;;;5.50;;
18304;SDS011;9278;52.156;21.048;2023-05-20T12:34:00;9.15;;;5.15;;
18304;SDS011;9278;52.156;21.048;2023-05-20T12:36:29;8.55;;;5.00;;
18304;SDS011;9278;52.156;21.048;2023-05-20T12:38:59;10.43;;;5.00;;
18304;SDS011;9278;52.156;21.048;2023-05-20T12:41:34;7.88;;;5.25;;
18304;SDS011;9278;52.156;21.048;2023-05-20T12:44:04;10.00;;;4.70;;
18304;SDS011;9278;52.156;21.048;2023-05-20T12:46:36;9.48;;;5.30;;
18304;SDS011;9278;52.156;21.048;2023-05-20T12:49:05;8.07;;;4.95;;
18304;SDS011;9278;52.156;21.048;2023-05-20T12:51:34;8.00;;;5.10;;
18304;SDS011;9278;52.156;21.048;2023-05-20T12:54:05;9.05;;;5.47;;
18304;SDS011;9278;52.156;21.048;2023-05-20T12:56:34;7.30;;;4.65;;
18304;SDS011;9278;52.156;21.048;2023-05-20T12:59:03;12.52;;;5.43;;
18304;SDS011;9278;52.156;21.048;2023-05-20T13:01:35;7.95;;;5.15;;
18304;SDS011;9278;52.156;21.048;2023-05-20T13:04:04;7.05;;;4.95;;
18304;SDS011;9278;52.156;21.048;2023-05-20T13:06:34;6.75;;;5.10;;
18304;SDS011;9278;52.156;21.048;2023-05-20T13:09:04;9.88;;;5.07;;
18304;SDS011;9278;52.156;21.048;2023-05-20T13:11:33;8.38;;;5.05;;
18304;SDS011;9278;52.156;21.048;2023-05-20T13:14:04;9.13;;;4.75;;
18304;SDS011;9278;52.156;21.048;2023-05-20T13:19:23;11.13;;;5.22;;
18304;SDS011;9278;52.156;21.048;2023-05-20T13:21:51;7.10;;;4.80;;
18304;SDS011;9278;52.156;21.048;2023-05-20T13:24:21;9.15;;;5.00;;
18304;SDS011;9278;52.156;21.048;2023-05-20T13:26:50;6.72;;;4.78;;
18304;SDS011;9278;52.156;21.048;2023-05-20T13:29:21;8.68;;;5.13;;
18304;SDS011;9278;52.156;21.048;2023-05-20T13:31:52;11.38;;;5.60;;
18304;SDS011;9278;52.156;21.048;2023-05-20T13:34:27;12.27;;;5.47;;
18304;SDS011;9278;52.156;21.048;2023-05-20T13:36:56;7.13;;;4.72;;
18304;SDS011;9278;52.156;21.048;2023-05-20T13:39:24;8.60;;;5.18;;
18304;SDS011;9278;52.156;21.048;2023-05-20T13:41:54;6.95;;;4.95;;
18304;SDS011;9278;52.156;21.048;2023-05-20T13:44:24;8.80;;;4.72;;
18304;SDS011;9278;52.156;21.048;2023-05-20T13:46:57;8.60;;;5.07;;
18304;SDS011;9278;52.156;21.048;2023-05-20T13:49:25;9.95;;;4.80;;
18304;SDS011;9278;52.156;21.048;2023-05-20T13:51:55;8.27;;;5.05;;
18304;SDS011;9278;52.156;21.048;2023-05-20T13:54:27;7.68;;;4.97;;
18304;SDS011;9278;52.156;21.048;2023-05-20T13:56:56;9.95;;;4.93;;
18304;SDS011;9278;52.156;21.048;2023-05-20T13:59:25;11.30;;;4.50;;
18304;SDS011;9278;52.156;21.048;2023-05-20T14:01:54;10.55;;;4.75;;
18304;SDS011;9278;52.156;21.048;2023-05-20T14:04:25;7.93;;;4.53;;
18304;SDS011;9278;52.156;21.048;2023-05-20T14:06:55;9.35;;;4.70;;
18304;SDS011;9278;52.156;21.048;2023-05-20T14:09:27;10.23;;;4.82;;
18304;SDS011;9278;52.156;21.048;2023-05-20T14:11:56;9.38;;;4.43;;
18304;SDS011;9278;52.156;21.048;2023-05-20T14:14:25;9.40;;;4.63;;
18304;SDS011;9278;52.156;21.048;2023-05-20T14:16:54;8.02;;;4.40;;
18304;SDS011;9278;52.156;21.048;2023-05-20T14:19:25;16.00;;;4.70;;
18304;SDS011;9278;52.156;21.048;2023-05-20T14:21:55;9.70;;;4.70;;
18304;SDS011;9278;52.156;21.048;2023-05-20T14:24:29;8.48;;;4.60;;
18304;SDS011;9278;52.156;21.048;2023-05-20T14:26:58;10.43;;;4.70;;
18304;SDS011;9278;52.156;21.048;2023-05-20T14:29:32;7.90;;;5.00;;
18304;SDS011;9278;52.156;21.048;2023-05-20T14:32:02;6.28;;;4.68;;
18304;SDS011;9278;52.156;21.048;2023-05-20T14:34:41;10.32;;;4.88;;
18304;SDS011;9278;52.156;21.048;2023-05-20T14:37:11;6.85;;;4.45;;
18304;SDS011;9278;52.156;21.048;2023-05-20T14:39:44;11.45;;;5.05;;
18304;SDS011;9278;52.156;21.048;2023-05-20T14:42:18;14.10;;;4.82;;
18304;SDS011;9278;52.156;21.048;2023-05-20T14:44:48;9.75;;;4.90;;
18304;SDS011;9278;52.156;21.048;2023-05-20T14:47:21;9.00;;;4.65;;
18304;SDS011;9278;52.156;21.048;2023-05-20T14:50:02;8.07;;;4.65;;
18304;SDS011;9278;52.156;21.048;2023-05-20T14:52:33;7.28;;;4.80;;
18304;SDS011;9278;52.156;21.048;2023-05-20T14:55:16;7.80;;;4.80;;
18304;SDS011;9278;52.156;21.048;2023-05-20T14:57:45;10.95;;;4.47;;
18304;SDS011;9278;52.156;21.048;2023-05-20T15:00:14;8.13;;;4.45;;
18304;SDS011;9278;52.156;21.048;2023-05-20T15:02:44;11.60;;;4.85;;
18304;SDS011;9278;52.156;21.048;2023-05-20T15:05:15;8.73;;;4.78;;
18304;SDS011;9278;52.156;21.048;2023-05-20T15:07:45;5.78;;;4.35;;
18304;SDS011;9278;52.156;21.048;2023-05-20T15:10:14;10.75;;;4.60;;
18304;SDS011;9278;52.156;21.048;2023-05-20T15:12:43;8.20;;;4.75;;
18304;SDS011;9278;52.156;21.048;2023-05-20T15:15:13;6.55;;;4.32;;
18304;SDS011;9278;52.156;21.048;2023-05-20T15:17:42;7.82;;;4.68;;
18304;SDS011;9278;52.156;21.048;2023-05-20T15:20:11;6.93;;;4.28;;
18304;SDS011;9278;52.156;21.048;2023-05-20T15:22:42;12.75;;;4.97;;
18304;SDS011;9278;52.156;21.048;2023-05-20T15:25:13;8.80;;;4.35;;
18304;SDS011;9278;52.156;21.048;2023-05-20T15:27:44;7.20;;;4.68;;
18304;SDS011;9278;52.156;21.048;2023-05-20T15:30:15;6.72;;;4.60;;
18304;SDS011;9278;52.156;21.048;2023-05-20T15:32:51;10.25;;;4.60;;
18304;SDS011;9278;52.156;21.048;2023-05-20T15:35:40;6.28;;;4.47;;